Time;durP1;ratioP1;P1;durP2;ratioP2;P2;SDS_P1;SDS_P2;PMS_P1;PMS_P2;Temp;Humidity;BMP_temperature;BMP_pressure;BME280_temperature;BME280_humidity;BME280_pressure;Samples;Min_cycle;Max_cycle;Signal;HPM_P1;HPM_P2
2022/10/13 00:00:24;;;;;;;7.72;4.60;;;;;;;;;;5038024;28;20079;-82
2022/10/13 00:02:49;;;;;;;8.73;4.53;;;;;;;;;;5038122;28;20120;-82
2022/10/13 00:05:15;;;;;;;11.40;4.18;;;;;;;;;;5039000;28;20029;-82
2022/10/13 00:07:40;;;;;;;7.00;3.90;;;;;;;;;;5039182;28;20095;-81
2022/10/13 00:10:06;;;;;;;9.15;4.20;;;;;;;;;;5039066;28;20087;-82
2022/10/13 00:12:35;;;;;;;7.03;3.78;;;;;;;;;;5037623;28;20344;-82
2022/10/13 00:15:01;;;;;;;9.48;4.05;;;;;;;;;;5039396;28;20029;-82
2022/10/13 00:17:26;;;;;;;6.43;4.20;;;;;;;;;;5037684;28;20095;-82
2022/10/13 00:19:51;;;;;;;10.05;4.32;;;;;;;;;;5039199;28;20049;-82
2022/10/13 00:22:17;;;;;;;5.97;3.97;;;;;;;;;;5037973;28;20075;-81
2022/10/13 00:24:43;;;;;;;7.88;4.68;;;;;;;;;;5037879;28;20120;-82
2022/10/13 00:27:08;;;;;;;7.43;3.92;;;;;;;;;;5021277;28;20061;-82
2022/10/13 00:29:33;;;;;;;8.05;4.07;;;;;;;;;;5038790;28;20040;-81
2022/10/13 00:31:59;;;;;;;9.00;4.30;;;;;;;;;;5039290;28;20056;-81
2022/10/13 00:34:25;;;;;;;10.95;3.80;;;;;;;;;;5038764;28;20066;-81
2022/10/13 00:36:50;;;;;;;6.53;3.88;;;;;;;;;;5038945;28;20075;-81
2022/10/13 00:39:15;;;;;;;7.10;3.80;;;;;;;;;;5037930;28;20057;-82
2022/10/13 00:41:41;;;;;;;6.53;3.95;;;;;;;;;;5020993;28;20037;-82
2022/10/13 00:44:45;;;;;;;7.00;4.15;;;;;;;;;;5037378;28;20029;-82
2022/10/13 00:47:10;;;;;;;6.70;3.75;;;;;;;;;;5038541;28;20032;-82
2022/10/13 00:49:35;;;;;;;8.07;4.05;;;;;;;;;;5038824;28;20022;-82
2022/10/13 00:52:01;;;;;;;9.30;4.25;;;;;;;;;;5038482;28;20045;-82
2022/10/13 00:54:26;;;;;;;6.07;3.97;;;;;;;;;;5038768;28;20037;-82
2022/10/13 00:56:52;;;;;;;5.78;3.85;;;;;;;;;;5038772;28;20380;-82
2022/10/13 00:59:22;;;;;;;8.40;3.80;;;;;;;;;;5038434;28;20033;-82
2022/10/13 01:01:50;;;;;;;6.57;3.78;;;;;;;;;;5037275;28;20484;-82
2022/10/13 01:04:16;;;;;;;8.50;3.88;;;;;;;;;;5037379;28;20390;-81
2022/10/13 01:06:42;;;;;;;6.35;4.00;;;;;;;;;;5018512;28;20035;-81
2022/10/13 01:09:07;;;;;;;8.07;3.88;;;;;;;;;;5034418;28;20053;-81
2022/10/13 01:11:46;;;;;;;8.80;4.22;;;;;;;;;;5035688;28;20109;-81
2022/10/13 01:14:32;;;;;;;7.80;3.97;;;;;;;;;;5035528;28;20052;-81
2022/10/13 01:17:04;;;;;;;8.45;4.05;;;;;;;;;;5033899;28;20384;-81
2022/10/13 01:19:35;;;;;;;6.90;3.92;;;;;;;;;;5033901;28;20022;-82
2022/10/13 01:22:13;;;;;;;7.13;4.15;;;;;;;;;;5035212;28;20384;-82
2022/10/13 01:24:42;;;;;;;6.93;3.80;;;;;;;;;;5035035;28;20112;-82
2022/10/13 01:27:13;;;;;;;4.80;3.47;;;;;;;;;;5035230;28;20028;-82
2022/10/13 01:30:10;;;;;;;5.57;3.58;;;;;;;;;;5035246;28;20036;-82
2022/10/13 01:32:59;;;;;;;7.07;3.83;;;;;;;;;;5035237;28;20030;-81
2022/10/13 01:35:46;;;;;;;7.20;3.55;;;;;;;;;;5033640;28;20028;-81
2022/10/13 01:38:39;;;;;;;4.60;3.25;;;;;;;;;;5034796;28;20446;-81
2022/10/13 01:41:29;;;;;;;5.65;3.20;;;;;;;;;;5014997;28;20076;-81
2022/10/13 01:44:15;;;;;;;7.00;3.88;;;;;;;;;;5030679;28;20037;-80
2022/10/13 01:46:42;;;;;;;7.10;3.88;;;;;;;;;;5033282;28;20070;-80
2022/10/13 01:49:12;;;;;;;8.50;4.00;;;;;;;;;;5033393;28;20030;-80
2022/10/13 01:51:38;;;;;;;5.85;4.03;;;;;;;;;;5033097;28;20459;-80
2022/10/13 01:54:04;;;;;;;5.97;3.75;;;;;;;;;;5034908;28;20171;-80
2022/10/13 01:56:30;;;;;;;6.95;3.67;;;;;;;;;;5034364;28;20108;-81
2022/10/13 01:58:57;;;;;;;7.38;3.95;;;;;;;;;;5049677;28;20037;-81
2022/10/13 02:01:32;;;;;;;8.98;3.92;;;;;;;;;;5033118;28;20506;-81
2022/10/13 02:03:59;;;;;;;10.25;4.57;;;;;;;;;;5034553;28;20036;-81
2022/10/13 02:06:38;;;;;;;10.02;4.63;;;;;;;;;;5032945;28;20099;-81
2022/10/13 02:09:10;;;;;;;10.25;4.10;;;;;;;;;;5034547;28;20112;-80
2022/10/13 02:11:38;;;;;;;9.40;4.57;;;;;;;;;;5033473;28;20124;-83
2022/10/13 02:14:08;;;;;;;9.98;4.55;;;;;;;;;;5033381;28;20021;-82
2022/10/13 02:16:38;;;;;;;7.72;4.70;;;;;;;;;;5032840;28;20103;-82
2022/10/13 02:19:04;;;;;;;7.20;4.20;;;;;;;;;;5032830;28;20026;-81
2022/10/13 02:21:30;;;;;;;10.05;4.75;;;;;;;;;;5016120;28;20026;-82
2022/10/13 02:23:56;;;;;;;11.25;4.78;;;;;;;;;;5032738;28;20118;-81
2022/10/13 02:26:22;;;;;;;12.80;5.78;;;;;;;;;;5032770;28;20033;-84
2022/10/13 02:28:47;;;;;;;12.40;6.13;;;;;;;;;;5032813;28;20031;-82
2022/10/13 02:31:12;;;;;;;10.50;5.53;;;;;;;;;;5033763;28;20048;-83
2022/10/13 02:33:38;;;;;;;11.10;5.28;;;;;;;;;;5015981;28;20120;-82
2022/10/13 02:36:03;;;;;;;10.57;5.68;;;;;;;;;;5032357;28;20437;-83
2022/10/13 02:38:29;;;;;;;10.57;5.38;;;;;;;;;;5032417;28;20420;-82
2022/10/13 02:40:55;;;;;;;13.70;5.93;;;;;;;;;;5032591;28;20332;-82
2022/10/13 02:43:20;;;;;;;10.23;5.38;;;;;;;;;;5032331;28;20068;-82
2022/10/13 02:45:45;;;;;;;10.20;5.10;;;;;;;;;;5049044;28;20500;-83
2022/10/13 02:48:11;;;;;;;12.02;5.07;;;;;;;;;;5032232;28;20065;-84
2022/10/13 02:50:36;;;;;;;10.27;5.57;;;;;;;;;;5033646;28;20033;-82
2022/10/13 02:53:02;;;;;;;10.90;4.97;;;;;;;;;;5033277;28;20535;-82
2022/10/13 02:55:27;;;;;;;7.60;4.93;;;;;;;;;;5033363;28;20038;-83
2022/10/13 02:57:52;;;;;;;7.85;4.90;;;;;;;;;;5033632;28;20033;-82
2022/10/13 03:00:18;;;;;;;12.68;5.05;;;;;;;;;;5033519;28;20036;-81
2022/10/13 03:02:43;;;;;;;11.00;4.78;;;;;;;;;;5015577;28;20095;-81
2022/10/13 03:05:09;;;;;;;9.13;4.78;;;;;;;;;;5033188;28;20037;-82
2022/10/13 03:07:35;;;;;;;12.77;4.57;;;;;;;;;;5032342;28;20033;-82
2022/10/13 03:10:01;;;;;;;10.90;4.78;;;;;;;;;;5033163;28;20033;-82
2022/10/13 03:12:26;;;;;;;9.77;4.88;;;;;;;;;;5031780;28;20026;-82
2022/10/13 03:14:51;;;;;;;9.88;4.85;;;;;;;;;;5033250;28;20041;-82
2022/10/13 03:17:17;;;;;;;8.35;5.25;;;;;;;;;;5015236;28;20371;-82
2022/10/13 03:19:42;;;;;;;8.93;4.93;;;;;;;;;;5032957;28;20444;-82
2022/10/13 03:22:08;;;;;;;11.23;5.13;;;;;;;;;;5032884;28;20035;-82
2022/10/13 03:24:33;;;;;;;7.88;4.57;;;;;;;;;;5031466;28;20124;-81
2022/10/13 03:26:58;;;;;;;6.65;4.10;;;;;;;;;;5015450;28;20147;-82
2022/10/13 03:29:24;;;;;;;9.45;4.60;;;;;;;;;;5031192;28;20055;-82
2022/10/13 03:31:49;;;;;;;8.75;4.53;;;;;;;;;;5032026;28;20044;-81
2022/10/13 03:34:16;;;;;;;9.27;4.22;;;;;;;;;;5033058;28;20040;-81
2022/10/13 03:36:41;;;;;;;10.35;4.70;;;;;;;;;;5015108;28;20048;-81
2022/10/13 03:39:07;;;;;;;8.80;4.40;;;;;;;;;;5031648;28;20030;-82
2022/10/13 03:41:32;;;;;;;10.18;4.70;;;;;;;;;;5031311;28;20029;-82
2022/10/13 03:43:58;;;;;;;10.25;4.78;;;;;;;;;;5014985;28;20134;-81
2022/10/13 03:46:26;;;;;;;7.40;4.20;;;;;;;;;;5031210;28;20047;-81
2022/10/13 03:48:51;;;;;;;8.43;4.20;;;;;;;;;;5031389;28;20026;-82
2022/10/13 03:51:19;;;;;;;6.00;4.03;;;;;;;;;;5014575;28;20103;-82
2022/10/13 03:53:45;;;;;;;8.45;4.20;;;;;;;;;;5031313;28;20026;-81
2022/10/13 03:56:16;;;;;;;7.18;3.90;;;;;;;;;;5031270;28;20026;-82
2022/10/13 03:58:42;;;;;;;6.55;4.22;;;;;;;;;;5031276;28;20113;-82
2022/10/13 04:01:08;;;;;;;9.52;4.50;;;;;;;;;;5031313;28;20053;-81
2022/10/13 04:03:34;;;;;;;7.57;4.20;;;;;;;;;;5031210;28;20032;-82
2022/10/13 04:06:00;;;;;;;8.38;4.50;;;;;;;;;;5014998;28;20502;-81
2022/10/13 04:08:27;;;;;;;8.98;3.97;;;;;;;;;;5014610;28;20388;-81
2022/10/13 04:11:04;;;;;;;5.80;4.20;;;;;;;;;;5014908;28;20029;-81
2022/10/13 04:13:30;;;;;;;10.07;3.92;;;;;;;;;;5031329;28;20029;-81
2022/10/13 04:16:01;;;;;;;6.75;3.92;;;;;;;;;;5014928;28;20029;-82
2022/10/13 04:18:26;;;;;;;8.85;4.80;;;;;;;;;;5031076;28;20143;-80
2022/10/13 04:20:51;;;;;;;13.27;5.10;;;;;;;;;;5032373;28;20116;-80
2022/10/13 04:23:17;;;;;;;9.02;4.85;;;;;;;;;;5031224;28;20025;-82
2022/10/13 04:25:42;;;;;;;10.60;4.75;;;;;;;;;;5032292;28;20044;-81
2022/10/13 04:28:10;;;;;;;12.40;5.07;;;;;;;;;;5032222;28;20068;-81
2022/10/13 04:30:35;;;;;;;10.82;5.05;;;;;;;;;;5030676;28;20033;-82
2022/10/13 04:33:01;;;;;;;17.88;5.30;;;;;;;;;;5034618;28;20029;-83
2022/10/13 04:35:27;;;;;;;18.05;5.45;;;;;;;;;;5033408;28;20027;-82
2022/10/13 04:37:52;;;;;;;17.58;5.80;;;;;;;;;;5032893;28;20029;-83
2022/10/13 04:40:18;;;;;;;24.30;5.50;;;;;;;;;;5034126;28;20080;-81
2022/10/13 04:42:43;;;;;;;18.83;6.20;;;;;;;;;;5016656;28;20030;-81
2022/10/13 04:45:09;;;;;;;11.98;5.25;;;;;;;;;;5036178;28;20084;-82
2022/10/13 04:47:35;;;;;;;16.23;5.57;;;;;;;;;;5018284;28;20029;-81
2022/10/13 04:50:01;;;;;;;10.75;5.50;;;;;;;;;;5035063;28;20483;-82
2022/10/13 04:52:26;;;;;;;18.73;6.72;;;;;;;;;;5034226;28;20041;-80
2022/10/13 04:54:51;;;;;;;27.20;7.72;;;;;;;;;;5035972;28;20032;-80
2022/10/13 04:57:18;;;;;;;20.27;6.82;;;;;;;;;;5038216;28;20065;-81
2022/10/13 04:59:43;;;;;;;22.27;6.60;;;;;;;;;;5034519;28;20472;-79
2022/10/13 05:02:09;;;;;;;22.52;6.68;;;;;;;;;;5036640;28;20025;-79
2022/10/13 05:04:35;;;;;;;17.08;6.32;;;;;;;;;;5034795;28;20388;-79
2022/10/13 05:07:00;;;;;;;16.50;5.80;;;;;;;;;;5035896;28;20108;-79
2022/10/13 05:09:26;;;;;;;15.75;6.03;;;;;;;;;;5035540;28;20033;-80
2022/10/13 05:11:53;;;;;;;20.65;5.25;;;;;;;;;;5019777;28;20033;-80
2022/10/13 05:14:19;;;;;;;21.25;6.10;;;;;;;;;;5035551;28;20044;-81
2022/10/13 05:16:44;;;;;;;16.02;5.80;;;;;;;;;;5020771;28;20030;-80
2022/10/13 05:19:09;;;;;;;19.25;5.35;;;;;;;;;;5037163;28;20059;-80
2022/10/13 05:21:35;;;;;;;16.45;5.60;;;;;;;;;;5019223;28;20061;-79
2022/10/13 05:24:01;;;;;;;20.63;6.30;;;;;;;;;;5017356;28;20060;-79
2022/10/13 05:26:30;;;;;;;10.43;5.45;;;;;;;;;;5037227;28;20484;-79
2022/10/13 05:28:56;;;;;;;14.00;5.60;;;;;;;;;;5036901;28;20033;-79
2022/10/13 05:31:23;;;;;;;14.00;5.55;;;;;;;;;;5036177;28;20037;-79
2022/10/13 05:33:50;;;;;;;14.48;5.28;;;;;;;;;;5019484;28;20427;-79
2022/10/13 05:36:20;;;;;;;16.50;5.30;;;;;;;;;;5035272;28;20028;-79
2022/10/13 05:38:49;;;;;;;10.55;5.35;;;;;;;;;;5017618;28;20110;-79
2022/10/13 05:41:14;;;;;;;9.13;4.95;;;;;;;;;;5034914;28;20017;-79
2022/10/13 05:43:40;;;;;;;14.45;5.25;;;;;;;;;;5017090;28;20033;-80
2022/10/13 05:46:06;;;;;;;12.45;4.93;;;;;;;;;;5017240;28;20387;-80
2022/10/13 05:48:32;;;;;;;8.60;5.35;;;;;;;;;;5035080;28;20029;-81
2022/10/13 05:50:59;;;;;;;11.50;5.07;;;;;;;;;;5033541;28;20048;-80
2022/10/13 05:53:28;;;;;;;9.30;4.93;;;;;;;;;;5033114;28;20033;-79
2022/10/13 05:55:55;;;;;;;9.35;4.80;;;;;;;;;;5033719;28;20027;-80
2022/10/13 05:58:21;;;;;;;12.45;5.03;;;;;;;;;;5034846;28;20478;-79
2022/10/13 06:00:46;;;;;;;9.15;4.63;;;;;;;;;;5034772;28;20029;-80
2022/10/13 06:03:15;;;;;;;13.38;5.70;;;;;;;;;;5033246;28;20342;-79
2022/10/13 06:05:42;;;;;;;11.82;4.60;;;;;;;;;;5016412;28;20342;-79
2022/10/13 06:08:08;;;;;;;8.57;4.95;;;;;;;;;;5033149;28;20208;-79
2022/10/13 06:10:33;;;;;;;9.15;4.97;;;;;;;;;;5000519;28;20033;-80
2022/10/13 06:12:59;;;;;;;7.80;4.55;;;;;;;;;;5016391;28;20379;-79
2022/10/13 06:15:24;;;;;;;8.52;3.90;;;;;;;;;;5016431;28;20033;-80
2022/10/13 06:17:50;;;;;;;10.18;4.75;;;;;;;;;;5034121;28;20559;-80
2022/10/13 06:20:15;;;;;;;13.43;5.20;;;;;;;;;;5016307;28;20037;-80
2022/10/13 06:22:41;;;;;;;9.60;4.82;;;;;;;;;;5033330;28;20048;-80
2022/10/13 06:25:07;;;;;;;7.93;4.82;;;;;;;;;;5033243;28;20056;-80
2022/10/13 06:27:32;;;;;;;10.27;4.88;;;;;;;;;;5034766;28;20033;-80
2022/10/13 06:29:58;;;;;;;7.18;4.55;;;;;;;;;;5034952;28;20341;-79
2022/10/13 06:32:24;;;;;;;9.50;4.93;;;;;;;;;;5036257;28;20468;-81
2022/10/13 06:34:49;;;;;;;11.68;4.97;;;;;;;;;;5034907;28;20050;-80
2022/10/13 06:37:14;;;;;;;9.30;4.82;;;;;;;;;;5033086;28;20142;-80
2022/10/13 06:39:40;;;;;;;7.35;4.00;;;;;;;;;;5033956;28;20033;-80
2022/10/13 06:42:06;;;;;;;6.45;4.10;;;;;;;;;;5033827;28;20025;-80
2022/10/13 06:44:31;;;;;;;8.55;4.38;;;;;;;;;;5015856;28;20025;-79
2022/10/13 06:46:57;;;;;;;9.52;4.50;;;;;;;;;;5033932;28;20033;-79
2022/10/13 06:49:23;;;;;;;9.48;4.70;;;;;;;;;;5032525;28;20057;-79
2022/10/13 06:51:48;;;;;;;10.68;5.20;;;;;;;;;;5015642;28;20471;-79
2022/10/13 06:54:14;;;;;;;8.70;4.50;;;;;;;;;;5015667;28;20120;-79
2022/10/13 06:56:39;;;;;;;14.35;4.95;;;;;;;;;;5032353;28;20037;-79
2022/10/13 06:59:05;;;;;;;9.32;4.10;;;;;;;;;;5031924;28;20052;-79
2022/10/13 07:01:30;;;;;;;11.50;5.10;;;;;;;;;;5015477;28;20120;-80
2022/10/13 07:03:56;;;;;;;8.90;4.32;;;;;;;;;;5031882;28;20041;-79
2022/10/13 07:06:21;;;;;;;9.23;4.43;;;;;;;;;;5031377;28;20532;-79
2022/10/13 07:08:46;;;;;;;5.75;4.00;;;;;;;;;;5031699;28;20033;-79
2022/10/13 07:11:13;;;;;;;8.15;4.20;;;;;;;;;;5015265;28;20041;-79
2022/10/13 07:13:39;;;;;;;11.93;4.20;;;;;;;;;;5031932;28;20037;-80
2022/10/13 07:16:05;;;;;;;8.57;4.57;;;;;;;;;;5031923;28;20464;-80
2022/10/13 07:18:31;;;;;;;6.68;4.10;;;;;;;;;;5031589;28;20424;-80
2022/10/13 07:20:58;;;;;;;6.70;4.60;;;;;;;;;;5032009;28;20124;-80
2022/10/13 07:23:23;;;;;;;8.75;3.80;;;;;;;;;;5031562;28;20456;-79
2022/10/13 07:25:49;;;;;;;7.72;4.30;;;;;;;;;;5033010;28;20167;-79
2022/10/13 07:28:14;;;;;;;9.10;4.05;;;;;;;;;;5033072;28;20076;-79
2022/10/13 07:30:40;;;;;;;12.85;4.43;;;;;;;;;;5031570;28;20448;-79
2022/10/13 07:33:05;;;;;;;11.35;4.88;;;;;;;;;;5031739;28;20041;-79
2022/10/13 07:35:31;;;;;;;9.60;4.10;;;;;;;;;;5031726;28;20037;-79
2022/10/13 07:37:56;;;;;;;10.00;4.57;;;;;;;;;;5014944;28;20025;-79
2022/10/13 07:40:22;;;;;;;8.68;4.10;;;;;;;;;;5031577;28;20030;-79
2022/10/13 07:42:47;;;;;;;9.65;4.15;;;;;;;;;;5031512;28;20024;-80
2022/10/13 07:45:13;;;;;;;12.43;4.68;;;;;;;;;;5031185;28;20041;-80
2022/10/13 07:47:38;;;;;;;6.30;4.38;;;;;;;;;;5031369;28;20405;-80
2022/10/13 07:50:04;;;;;;;14.85;4.20;;;;;;;;;;5014992;28;20456;-79
2022/10/13 07:52:29;;;;;;;7.85;4.20;;;;;;;;;;5031125;28;20071;-79
2022/10/13 07:54:55;;;;;;;10.15;3.97;;;;;;;;;;5031491;28;20076;-79
2022/10/13 07:57:20;;;;;;;9.00;4.38;;;;;;;;;;5032691;28;20044;-79
2022/10/13 07:59:46;;;;;;;9.30;4.45;;;;;;;;;;5031549;28;20057;-79
2022/10/13 08:02:12;;;;;;;8.35;4.35;;;;;;;;;;5032931;28;20033;-79
2022/10/13 08:04:37;;;;;;;10.75;4.40;;;;;;;;;;5031191;28;20033;-79
2022/10/13 08:07:04;;;;;;;10.98;4.53;;;;;;;;;;5014557;28;20032;-79
2022/10/13 08:09:30;;;;;;;11.32;4.60;;;;;;;;;;5032566;28;20029;-79
2022/10/13 08:11:55;;;;;;;6.75;4.03;;;;;;;;;;4998794;28;20535;-79
2022/10/13 08:14:20;;;;;;;6.97;4.18;;;;;;;;;;5014804;28;20049;-80
2022/10/13 08:16:46;;;;;;;8.07;4.13;;;;;;;;;;5034367;28;20029;-80
2022/10/13 08:19:12;;;;;;;6.22;4.07;;;;;;;;;;5018641;28;20037;-80
2022/10/13 08:21:38;;;;;;;9.05;4.65;;;;;;;;;;5035048;28;20076;-80
2022/10/13 08:24:11;;;;;;;6.68;4.15;;;;;;;;;;5036889;28;20041;-80
2022/10/13 08:26:37;;;;;;;8.68;4.15;;;;;;;;;;5035181;28;20025;-80
2022/10/13 08:29:02;;;;;;;10.35;4.22;;;;;;;;;;5035027;28;20491;-80
2022/10/13 08:31:28;;;;;;;8.75;4.28;;;;;;;;;;5018357;28;20072;-80
2022/10/13 08:33:53;;;;;;;7.68;4.10;;;;;;;;;;5036228;28;20038;-79
2022/10/13 08:36:19;;;;;;;7.32;4.07;;;;;;;;;;5001941;28;20041;-79
2022/10/13 08:38:44;;;;;;;10.02;4.43;;;;;;;;;;5036230;28;20029;-80
2022/10/13 08:41:23;;;;;;;6.18;4.53;;;;;;;;;;5018123;28;20147;-79
2022/10/13 08:44:00;;;;;;;7.60;4.50;;;;;;;;;;5035730;28;20021;-80
2022/10/13 08:46:28;;;;;;;9.10;4.32;;;;;;;;;;5036959;28;20083;-80
2022/10/13 08:48:54;;;;;;;6.95;4.07;;;;;;;;;;5037493;28;20108;-79
2022/10/13 08:51:20;;;;;;;7.13;4.63;;;;;;;;;;5035563;28;20046;-80
2022/10/13 08:53:46;;;;;;;8.18;3.83;;;;;;;;;;5034853;28;20094;-80
2022/10/13 08:56:19;;;;;;;5.38;3.97;;;;;;;;;;5035536;28;20130;-80
2022/10/13 08:58:45;;;;;;;6.93;3.73;;;;;;;;;;5018537;28;20025;-80
2022/10/13 09:01:14;;;;;;;6.72;4.10;;;;;;;;;;5034743;28;20281;-80
2022/10/13 09:03:48;;;;;;;9.35;4.18;;;;;;;;;;5018435;28;20441;-80
2022/10/13 09:06:20;;;;;;;6.20;4.38;;;;;;;;;;5034830;28;20456;-79
2022/10/13 09:08:57;;;;;;;7.75;3.90;;;;;;;;;;5018265;28;20032;-79
2022/10/13 09:11:24;;;;;;;7.03;4.10;;;;;;;;;;5035967;28;20030;-79
2022/10/13 09:13:53;;;;;;;8.57;4.10;;;;;;;;;;5034799;28;20029;-79
2022/10/13 09:16:26;;;;;;;8.32;4.07;;;;;;;;;;5017741;28;20153;-80
2022/10/13 09:18:51;;;;;;;9.15;4.30;;;;;;;;;;5034331;28;20052;-80
2022/10/13 09:21:20;;;;;;;9.23;4.28;;;;;;;;;;5017447;28;20075;-81
2022/10/13 09:23:49;;;;;;;10.95;4.68;;;;;;;;;;5034087;28;20025;-81
2022/10/13 09:26:18;;;;;;;6.22;4.10;;;;;;;;;;5033842;28;20359;-80
2022/10/13 09:28:43;;;;;;;6.57;4.00;;;;;;;;;;5016343;28;20207;-81
2022/10/13 09:31:18;;;;;;;6.53;4.00;;;;;;;;;;5017138;28;20188;-80
2022/10/13 09:33:44;;;;;;;9.05;4.35;;;;;;;;;;5033728;28;20484;-80
2022/10/13 09:36:14;;;;;;;7.93;4.60;;;;;;;;;;5034397;28;20086;-80
2022/10/13 09:38:42;;;;;;;7.65;4.07;;;;;;;;;;5034204;28;20420;-81
2022/10/13 09:41:07;;;;;;;6.72;4.40;;;;;;;;;;5017369;28;20021;-80
2022/10/13 09:43:33;;;;;;;6.63;3.90;;;;;;;;;;5034437;28;20536;-80
2022/10/13 09:45:59;;;;;;;6.10;3.75;;;;;;;;;;5034770;28;20120;-80
2022/10/13 09:48:27;;;;;;;8.20;3.72;;;;;;;;;;5033988;28;20030;-81
2022/10/13 09:50:54;;;;;;;6.50;4.10;;;;;;;;;;5034896;28;20033;-81
2022/10/13 09:53:33;;;;;;;6.22;3.83;;;;;;;;;;5049920;28;20468;-80
2022/10/13 09:56:36;;;;;;;6.65;3.92;;;;;;;;;;5033453;28;20076;-79
2022/10/13 09:59:11;;;;;;;8.88;4.32;;;;;;;;;;5033147;28;20113;-79
2022/10/13 10:01:41;;;;;;;6.63;4.00;;;;;;;;;;5033320;28;20033;-79
2022/10/13 10:04:11;;;;;;;7.57;4.13;;;;;;;;;;5033110;28;20021;-80
2022/10/13 10:06:37;;;;;;;7.25;4.03;;;;;;;;;;5033287;28;20025;-80
2022/10/13 10:09:36;;;;;;;5.93;3.95;;;;;;;;;;5033127;28;20030;-80
2022/10/13 10:12:03;;;;;;;6.25;3.95;;;;;;;;;;5032590;28;20472;-79
2022/10/13 10:14:32;;;;;;;7.97;4.10;;;;;;;;;;5034449;28;20029;-80
2022/10/13 10:17:19;;;;;;;6.50;3.63;;;;;;;;;;5016208;28;20067;-80
2022/10/13 10:20:08;;;;;;;8.88;4.07;;;;;;;;;;5034384;28;20072;-80
2022/10/13 10:22:48;;;;;;;8.90;3.80;;;;;;;;;;5032609;28;20021;-80
2022/10/13 10:25:22;;;;;;;7.93;3.70;;;;;;;;;;5032864;28;20021;-80
2022/10/13 10:28:05;;;;;;;9.88;3.70;;;;;;;;;;5032809;28;20129;-80
2022/10/13 10:30:34;;;;;;;5.18;3.75;;;;;;;;;;5033067;28;20029;-80
2022/10/13 10:33:10;;;;;;;10.63;3.53;;;;;;;;;;5032746;28;20038;-80
2022/10/13 10:35:46;;;;;;;5.88;3.42;;;;;;;;;;5032760;28;20022;-79
2022/10/13 10:38:30;;;;;;;6.57;3.50;;;;;;;;;;5033651;28;20468;-80
2022/10/13 10:41:02;;;;;;;6.40;3.65;;;;;;;;;;5034111;28;20191;-80
2022/10/13 10:43:56;;;;;;;7.38;3.78;;;;;;;;;;5032188;28;20103;-79
2022/10/13 10:46:23;;;;;;;10.45;3.75;;;;;;;;;;5032286;28;20112;-79
2022/10/13 10:48:52;;;;;;;5.10;3.30;;;;;;;;;;5032427;28;20022;-79
2022/10/13 10:51:18;;;;;;;12.13;3.67;;;;;;;;;;5032249;28;20048;-79
2022/10/13 10:53:54;;;;;;;7.97;3.28;;;;;;;;;;5031919;28;20050;-79
2022/10/13 10:56:28;;;;;;;8.15;3.17;;;;;;;;;;5034019;28;20088;-80
2022/10/13 10:59:22;;;;;;;8.27;3.50;;;;;;;;;;5032765;28;20128;-80
2022/10/13 11:02:01;;;;;;;7.45;3.50;;;;;;;;;;5034206;28;20018;-80
2022/10/13 11:04:39;;;;;;;14.10;3.50;;;;;;;;;;5033854;28;20034;-80
2022/10/13 11:07:10;;;;;;;9.52;3.92;;;;;;;;;;5034511;28;20025;-80
2022/10/13 11:09:41;;;;;;;8.68;3.10;;;;;;;;;;5016587;28;20025;-80
2022/10/13 11:12:19;;;;;;;9.38;3.25;;;;;;;;;;5031968;28;20044;-80
2022/10/13 11:15:00;;;;;;;8.27;3.53;;;;;;;;;;5033549;28;20120;-80
2022/10/13 11:17:31;;;;;;;8.43;3.30;;;;;;;;;;5033534;28;20025;-80
2022/10/13 11:19:57;;;;;;;11.65;3.88;;;;;;;;;;5015705;28;20032;-81
2022/10/13 11:22:24;;;;;;;10.05;3.78;;;;;;;;;;5015759;28;20067;-82
2022/10/13 11:24:51;;;;;;;8.75;3.47;;;;;;;;;;5016487;28;20103;-80
2022/10/13 11:27:31;;;;;;;8.30;4.10;;;;;;;;;;5033137;28;20417;-80
2022/10/13 11:29:59;;;;;;;7.93;4.03;;;;;;;;;;5032902;28;20088;-80
2022/10/13 11:32:29;;;;;;;9.90;3.80;;;;;;;;;;5031953;28;20143;-80
2022/10/13 11:35:04;;;;;;;10.10;3.63;;;;;;;;;;5032946;28;20480;-80
2022/10/13 11:38:03;;;;;;;7.03;3.25;;;;;;;;;;5032899;28;20033;-80
2022/10/13 11:40:44;;;;;;;8.90;3.47;;;;;;;;;;5023858;28;20099;-80
2022/10/13 11:43:31;;;;;;;11.40;3.85;;;;;;;;;;5032812;28;20092;-81
2022/10/13 11:46:18;;;;;;;8.82;3.97;;;;;;;;;;5031362;28;20025;-80
2022/10/13 11:49:00;;;;;;;10.20;3.85;;;;;;;;;;5031321;28;20082;-79
2022/10/13 11:51:47;;;;;;;9.00;3.60;;;;;;;;;;5030513;28;20041;-80
2022/10/13 11:54:22;;;;;;;13.43;3.60;;;;;;;;;;5015098;28;20045;-79
2022/10/13 11:56:53;;;;;;;12.85;4.00;;;;;;;;;;5032807;28;20083;-79
2022/10/13 11:59:30;;;;;;;9.85;3.70;;;;;;;;;;5014556;28;20530;-79
2022/10/13 12:01:57;;;;;;;5.63;3.35;;;;;;;;;;5033055;28;20113;-79
2022/10/13 12:04:25;;;;;;;10.43;4.00;;;;;;;;;;5032489;28;20037;-79
2022/10/13 12:06:54;;;;;;;10.52;3.90;;;;;;;;;;5031147;28;20045;-79
2022/10/13 12:09:20;;;;;;;9.48;4.07;;;;;;;;;;5030969;28;20029;-79
2022/10/13 12:11:56;;;;;;;14.38;4.50;;;;;;;;;;5031011;28;20099;-79
2022/10/13 12:14:28;;;;;;;6.97;3.60;;;;;;;;;;5031099;28;20061;-79
2022/10/13 12:16:55;;;;;;;9.90;3.97;;;;;;;;;;5014775;28;20537;-79
2022/10/13 12:19:23;;;;;;;8.82;3.58;;;;;;;;;;5031219;28;20491;-79
2022/10/13 12:21:57;;;;;;;10.57;4.40;;;;;;;;;;5031190;28;20048;-79
2022/10/13 12:24:25;;;;;;;11.57;3.65;;;;;;;;;;5030936;28;20164;-80
2022/10/13 12:26:51;;;;;;;7.68;4.55;;;;;;;;;;5030836;28;20025;-79
2022/10/13 12:29:19;;;;;;;8.98;4.03;;;;;;;;;;5030856;28;20106;-79
2022/10/13 12:31:46;;;;;;;13.65;4.30;;;;;;;;;;5014553;28;20034;-81
2022/10/13 12:34:28;;;;;;;12.68;4.20;;;;;;;;;;5031239;28;20033;-79
2022/10/13 12:37:02;;;;;;;9.93;4.00;;;;;;;;;;5014519;28;20029;-79
2022/10/13 12:39:30;;;;;;;7.00;3.70;;;;;;;;;;5030786;28;20029;-78
2022/10/13 12:41:56;;;;;;;9.00;3.95;;;;;;;;;;5030915;28;20022;-79
2022/10/13 12:44:27;;;;;;;7.32;3.80;;;;;;;;;;5030910;28;20033;-79
2022/10/13 12:46:58;;;;;;;12.95;4.22;;;;;;;;;;5031366;28;20108;-79
2022/10/13 12:49:26;;;;;;;9.77;4.00;;;;;;;;;;5031143;28;20036;-80
2022/10/13 12:52:13;;;;;;;17.42;4.32;;;;;;;;;;5030477;28;20530;-80
2022/10/13 12:54:51;;;;;;;8.43;3.92;;;;;;;;;;5032529;28;20045;-81
2022/10/13 12:57:34;;;;;;;13.23;3.70;;;;;;;;;;5034502;28;20108;-81
2022/10/13 13:00:00;;;;;;;6.85;4.20;;;;;;;;;;5034729;28;20029;-79
2022/10/13 13:02:30;;;;;;;7.93;4.25;;;;;;;;;;5037348;28;20127;-78
2022/10/13 13:04:55;;;;;;;8.70;3.90;;;;;;;;;;5028987;28;20495;-78
2022/10/13 13:07:29;;;;;;;14.30;4.13;;;;;;;;;;5015666;28;20045;-79
2022/10/13 13:10:06;;;;;;;11.27;4.30;;;;;;;;;;5015732;28;20030;-78
2022/10/13 13:12:32;;;;;;;8.98;4.20;;;;;;;;;;5015704;28;20765;-79
2022/10/13 13:15:35;;;;;;;6.68;4.10;;;;;;;;;;5014189;28;20033;-78
2022/10/13 13:18:29;;;;;;;9.73;3.90;;;;;;;;;;5015435;28;20037;-79
2022/10/13 13:20:55;;;;;;;10.35;4.15;;;;;;;;;;5014102;28;20025;-80
2022/10/13 13:23:22;;;;;;;9.13;3.83;;;;;;;;;;5014960;28;20551;-80
2022/10/13 13:25:58;;;;;;;7.25;4.00;;;;;;;;;;5013920;28;20022;-81
2022/10/13 13:28:28;;;;;;;6.93;4.03;;;;;;;;;;5000700;28;20033;-80
2022/10/13 13:30:54;;;;;;;5.82;3.58;;;;;;;;;;5014804;28;20448;-80
2022/10/13 13:33:19;;;;;;;9.82;4.30;;;;;;;;;;5032720;28;20128;-80
2022/10/13 13:35:47;;;;;;;14.02;4.65;;;;;;;;;;5033657;28;20021;-81
2022/10/13 13:38:12;;;;;;;9.85;4.30;;;;;;;;;;5034755;28;20037;-80
2022/10/13 13:40:37;;;;;;;6.90;4.00;;;;;;;;;;5033282;28;20025;-80
2022/10/13 13:43:03;;;;;;;9.10;4.07;;;;;;;;;;5034479;28;20078;-80
2022/10/13 13:45:28;;;;;;;8.93;3.70;;;;;;;;;;5032988;28;20122;-80
2022/10/13 13:47:53;;;;;;;7.90;4.65;;;;;;;;;;5035119;28;20037;-80
2022/10/13 13:50:21;;;;;;;6.38;3.60;;;;;;;;;;5034790;28;20504;-77
2022/10/13 13:52:47;;;;;;;7.03;4.00;;;;;;;;;;5034069;28;20407;-80
2022/10/13 13:55:12;;;;;;;8.32;3.90;;;;;;;;;;5034459;28;20037;-78
2022/10/13 13:57:38;;;;;;;9.80;4.10;;;;;;;;;;5032950;28;20508;-80
2022/10/13 14:00:04;;;;;;;6.38;4.25;;;;;;;;;;5034680;28;20523;-79
2022/10/13 14:02:30;;;;;;;10.32;4.45;;;;;;;;;;5024149;28;20030;-79
2022/10/13 14:04:55;;;;;;;7.95;4.10;;;;;;;;;;5013242;28;20128;-80
2022/10/13 14:07:21;;;;;;;10.43;5.05;;;;;;;;;;5029782;28;20034;-79
2022/10/13 14:09:46;;;;;;;7.88;3.92;;;;;;;;;;5013310;28;20053;-80
2022/10/13 14:12:11;;;;;;;6.93;4.45;;;;;;;;;;5013354;28;20026;-79
2022/10/13 14:14:37;;;;;;;9.95;4.13;;;;;;;;;;5014466;28;20353;-80
2022/10/13 14:17:03;;;;;;;9.75;5.05;;;;;;;;;;5015338;28;20100;-80
2022/10/13 14:19:30;;;;;;;8.02;4.43;;;;;;;;;;5030503;28;20477;-80
2022/10/13 14:21:55;;;;;;;11.88;5.18;;;;;;;;;;5000542;28;20034;-78
2022/10/13 14:24:21;;;;;;;8.80;4.43;;;;;;;;;;5015786;28;20396;-78
2022/10/13 14:26:46;;;;;;;7.82;4.30;;;;;;;;;;5015744;28;20033;-78
2022/10/13 14:29:12;;;;;;;6.57;4.65;;;;;;;;;;5015031;28;20408;-80
2022/10/13 14:31:37;;;;;;;10.95;3.95;;;;;;;;;;5014499;28;20022;-80
2022/10/13 14:34:03;;;;;;;5.53;3.67;;;;;;;;;;5013930;28;20044;-78
2022/10/13 14:36:28;;;;;;;13.10;4.65;;;;;;;;;;5013128;28;20202;-78
2022/10/13 14:38:54;;;;;;;8.02;4.10;;;;;;;;;;5015221;28;20034;-80
2022/10/13 14:41:19;;;;;;;8.90;3.88;;;;;;;;;;5014156;28;20067;-84
2022/10/13 14:43:45;;;;;;;9.13;4.38;;;;;;;;;;4997106;28;20353;-82
2022/10/13 14:46:11;;;;;;;9.85;4.25;;;;;;;;;;5016413;28;20026;-80
2022/10/13 14:48:36;;;;;;;18.40;4.72;;;;;;;;;;4998102;28;20113;-82